This is the latest recevied weather packets stored in our database for station/object KM4LTG. If no packets are shown the sender has not sent any weather packets the latest 10 day(s).
| Time | Temp. | Humidity | Pressure | Rain* | Wind** | Luminosity | Snow |
|---|---|---|---|---|---|---|---|
| 1777408091 | 28.89° C | 58% | 1019 hPa | 0 mm | - | - | - |
| 1777407812 | 28.33° C | 58% | 1019 hPa | 0 mm | - | - | - |
| 1777407536 | 28.33° C | 60% | 1019.1 hPa | 0 mm | - | - | - |
| 1777407291 | 28.33° C | 57% | 1019.1 hPa | 0 mm | - | - | - |
| 1777407036 | 28.33° C | 57% | 1019.1 hPa | 0 mm | - | - | - |
| 1777406796 | 28.89° C | 58% | 1019.1 hPa | 0 mm | - | - | - |
| 1777406526 | 28.33° C | 58% | 1019.2 hPa | 0 mm | - | - | - |
| 1777406247 | 28.89° C | 57% | 1019.2 hPa | 0 mm | - | - | - |
| 1777405951 | 28.89° C | 58% | 1019.2 hPa | 0 mm | - | - | - |
| 1777405661 | 28.89° C | 58% | 1019.2 hPa | 0 mm | - | - | - |
| 1777405396 | 29.44° C | 58% | 1019.3 hPa | 0 mm | - | - | - |
| 1777405107 | 29.44° C | 58% | 1019.4 hPa | 0 mm | - | - | - |
| 1777404856 | 28.89° C | 59% | 1019.4 hPa | 0 mm | - | - | - |
| 1777404611 | 28.89° C | 59% | 1019.4 hPa | 0 mm | - | - | - |
| 1777404346 | 28.89° C | 59% | 1019.4 hPa | 0 mm | - | - | - |
| 1777404092 | 29.44° C | 55% | 1019.5 hPa | 0 mm | - | - | - |
| 1777403801 | 30° C | 55% | 1019.5 hPa | 0 mm | - | - | - |
| 1777403554 | 28.89° C | 57% | 1019.5 hPa | 0 mm | - | - | - |
| 1777403256 | 28.89° C | 58% | 1019.5 hPa | 0 mm | - | - | - |
| 1777402986 | 29.44° C | 57% | 1019.7 hPa | 0 mm | - | - | - |
| 1777402741 | 29.44° C | 58% | 1019.8 hPa | 0 mm | - | - | - |
| 1777402451 | 28.89° C | 60% | 1019.9 hPa | 0 mm | - | - | - |
| 1777402196 | 28.33° C | 60% | 1019.9 hPa | 0 mm | - | - | - |
| 1777401946 | 28.33° C | 60% | 1019.9 hPa | 0 mm | - | - | - |
| 1777401651 | 28.89° C | 58% | 1020.1 hPa | 0 mm | - | - | - |
* Rain latest hour (hover to see other rain measurements)
** Current wind speed in m/s (hover to see current wind gust speed)